sensor_id;sensor_type;location;lat;lon;timestamp;P1;durP1;ratioP1;P2;durP2;ratioP2
16063;SDS011;8136;53.172;8.256;2023-09-12T00:00:05;25.13;;;19.10;;
16063;SDS011;8136;53.172;8.256;2023-09-12T00:02:32;25.57;;;18.93;;
16063;SDS011;8136;53.172;8.256;2023-09-12T00:04:59;29.03;;;19.63;;
16063;SDS011;8136;53.172;8.256;2023-09-12T00:07:27;31.17;;;19.30;;
16063;SDS011;8136;53.172;8.256;2023-09-12T00:09:55;25.30;;;18.37;;
16063;SDS011;8136;53.172;8.256;2023-09-12T00:12:22;25.13;;;18.50;;
16063;SDS011;8136;53.172;8.256;2023-09-12T00:14:50;24.97;;;19.23;;
16063;SDS011;8136;53.172;8.256;2023-09-12T00:17:17;25.40;;;16.77;;
16063;SDS011;8136;53.172;8.256;2023-09-12T00:19:43;29.13;;;18.93;;
16063;SDS011;8136;53.172;8.256;2023-09-12T00:22:10;28.23;;;20.33;;
16063;SDS011;8136;53.172;8.256;2023-09-12T00:24:37;27.27;;;18.90;;
16063;SDS011;8136;53.172;8.256;2023-09-12T00:27:05;29.23;;;19.60;;
16063;SDS011;8136;53.172;8.256;2023-09-12T00:29:32;26.87;;;18.40;;
16063;SDS011;8136;53.172;8.256;2023-09-12T00:31:59;26.70;;;20.17;;
16063;SDS011;8136;53.172;8.256;2023-09-12T00:34:26;26.97;;;19.60;;
16063;SDS011;8136;53.172;8.256;2023-09-12T00:36:52;25.17;;;19.70;;
16063;SDS011;8136;53.172;8.256;2023-09-12T00:39:19;24.83;;;18.87;;
16063;SDS011;8136;53.172;8.256;2023-09-12T00:41:46;24.90;;;18.80;;
16063;SDS011;8136;53.172;8.256;2023-09-12T00:44:14;28.17;;;20.23;;
16063;SDS011;8136;53.172;8.256;2023-09-12T00:46:41;30.07;;;20.13;;
16063;SDS011;8136;53.172;8.256;2023-09-12T00:49:10;31.13;;;20.73;;
16063;SDS011;8136;53.172;8.256;2023-09-12T00:51:38;26.07;;;20.57;;
16063;SDS011;8136;53.172;8.256;2023-09-12T00:54:05;29.87;;;21.17;;
16063;SDS011;8136;53.172;8.256;2023-09-12T00:56:32;34.43;;;21.23;;
16063;SDS011;8136;53.172;8.256;2023-09-12T00:59:00;31.37;;;20.97;;
16063;SDS011;8136;53.172;8.256;2023-09-12T01:01:29;33.33;;;21.10;;
16063;SDS011;8136;53.172;8.256;2023-09-12T01:03:57;33.73;;;21.43;;
16063;SDS011;8136;53.172;8.256;2023-09-12T01:06:24;30.03;;;20.37;;
16063;SDS011;8136;53.172;8.256;2023-09-12T01:08:53;33.97;;;21.13;;
16063;SDS011;8136;53.172;8.256;2023-09-12T01:11:20;26.77;;;20.50;;
16063;SDS011;8136;53.172;8.256;2023-09-12T01:13:47;28.47;;;19.33;;
16063;SDS011;8136;53.172;8.256;2023-09-12T01:16:14;25.20;;;20.73;;
16063;SDS011;8136;53.172;8.256;2023-09-12T01:18:42;31.67;;;22.10;;
16063;SDS011;8136;53.172;8.256;2023-09-12T01:21:17;31.70;;;21.83;;
16063;SDS011;8136;53.172;8.256;2023-09-12T01:24:07;30.70;;;21.63;;
16063;SDS011;8136;53.172;8.256;2023-09-12T01:27:19;28.00;;;21.13;;
16063;SDS011;8136;53.172;8.256;2023-09-12T01:29:51;28.40;;;20.67;;
16063;SDS011;8136;53.172;8.256;2023-09-12T01:32:22;29.77;;;21.90;;
16063;SDS011;8136;53.172;8.256;2023-09-12T01:34:49;31.73;;;21.00;;
16063;SDS011;8136;53.172;8.256;2023-09-12T01:37:15;28.87;;;20.17;;
16063;SDS011;8136;53.172;8.256;2023-09-12T01:39:42;28.80;;;20.27;;
16063;SDS011;8136;53.172;8.256;2023-09-12T01:42:09;28.93;;;20.47;;
16063;SDS011;8136;53.172;8.256;2023-09-12T01:44:41;24.73;;;19.67;;
16063;SDS011;8136;53.172;8.256;2023-09-12T01:47:10;25.67;;;19.63;;
16063;SDS011;8136;53.172;8.256;2023-09-12T01:49:39;24.13;;;19.30;;
16063;SDS011;8136;53.172;8.256;2023-09-12T01:52:07;24.40;;;20.17;;
16063;SDS011;8136;53.172;8.256;2023-09-12T01:54:35;28.37;;;20.33;;
16063;SDS011;8136;53.172;8.256;2023-09-12T01:57:04;25.53;;;19.93;;
16063;SDS011;8136;53.172;8.256;2023-09-12T01:59:31;24.87;;;19.03;;
16063;SDS011;8136;53.172;8.256;2023-09-12T02:01:59;23.03;;;17.50;;
16063;SDS011;8136;53.172;8.256;2023-09-12T02:04:27;23.70;;;18.00;;
16063;SDS011;8136;53.172;8.256;2023-09-12T02:06:54;23.90;;;17.80;;
16063;SDS011;8136;53.172;8.256;2023-09-12T02:09:20;25.43;;;18.23;;
16063;SDS011;8136;53.172;8.256;2023-09-12T02:11:48;27.47;;;18.70;;
16063;SDS011;8136;53.172;8.256;2023-09-12T02:14:16;26.70;;;19.53;;
16063;SDS011;8136;53.172;8.256;2023-09-12T02:16:44;27.43;;;19.30;;
16063;SDS011;8136;53.172;8.256;2023-09-12T02:19:12;23.57;;;18.00;;
16063;SDS011;8136;53.172;8.256;2023-09-12T02:21:38;25.43;;;19.57;;
16063;SDS011;8136;53.172;8.256;2023-09-12T02:24:06;25.67;;;19.83;;
16063;SDS011;8136;53.172;8.256;2023-09-12T02:26:33;28.20;;;18.97;;
16063;SDS011;8136;53.172;8.256;2023-09-12T02:29:01;23.37;;;18.50;;
16063;SDS011;8136;53.172;8.256;2023-09-12T02:31:28;26.27;;;19.67;;
16063;SDS011;8136;53.172;8.256;2023-09-12T02:33:55;22.20;;;17.73;;
16063;SDS011;8136;53.172;8.256;2023-09-12T02:36:23;24.47;;;18.57;;
16063;SDS011;8136;53.172;8.256;2023-09-12T02:38:50;23.40;;;19.23;;
16063;SDS011;8136;53.172;8.256;2023-09-12T02:41:17;24.13;;;19.30;;
16063;SDS011;8136;53.172;8.256;2023-09-12T02:43:43;26.07;;;20.27;;
16063;SDS011;8136;53.172;8.256;2023-09-12T02:46:10;28.60;;;20.47;;
16063;SDS011;8136;53.172;8.256;2023-09-12T02:48:37;27.27;;;20.17;;
16063;SDS011;8136;53.172;8.256;2023-09-12T02:51:04;29.50;;;21.10;;
16063;SDS011;8136;53.172;8.256;2023-09-12T02:53:32;31.43;;;23.40;;
16063;SDS011;8136;53.172;8.256;2023-09-12T02:55:59;34.93;;;22.70;;
16063;SDS011;8136;53.172;8.256;2023-09-12T02:58:25;30.37;;;22.30;;
16063;SDS011;8136;53.172;8.256;2023-09-12T03:00:52;32.93;;;22.27;;
16063;SDS011;8136;53.172;8.256;2023-09-12T03:03:19;26.20;;;20.67;;
16063;SDS011;8136;53.172;8.256;2023-09-12T03:05:46;29.60;;;20.67;;
16063;SDS011;8136;53.172;8.256;2023-09-12T03:08:13;33.80;;;23.13;;
16063;SDS011;8136;53.172;8.256;2023-09-12T03:10:41;30.50;;;21.73;;
16063;SDS011;8136;53.172;8.256;2023-09-12T03:13:08;28.57;;;21.53;;
16063;SDS011;8136;53.172;8.256;2023-09-12T03:15:37;34.97;;;22.83;;
16063;SDS011;8136;53.172;8.256;2023-09-12T03:18:04;29.40;;;20.87;;
16063;SDS011;8136;53.172;8.256;2023-09-12T03:20:37;30.83;;;23.50;;
16063;SDS011;8136;53.172;8.256;2023-09-12T03:23:04;31.40;;;22.20;;
16063;SDS011;8136;53.172;8.256;2023-09-12T03:25:34;31.83;;;23.47;;
16063;SDS011;8136;53.172;8.256;2023-09-12T03:28:04;36.67;;;25.00;;
16063;SDS011;8136;53.172;8.256;2023-09-12T03:30:32;29.63;;;23.17;;
16063;SDS011;8136;53.172;8.256;2023-09-12T03:33:00;30.60;;;23.77;;
16063;SDS011;8136;53.172;8.256;2023-09-12T03:35:28;31.60;;;23.87;;
16063;SDS011;8136;53.172;8.256;2023-09-12T03:37:55;29.60;;;22.27;;
16063;SDS011;8136;53.172;8.256;2023-09-12T03:40:22;32.07;;;23.27;;
16063;SDS011;8136;53.172;8.256;2023-09-12T03:42:48;31.43;;;22.67;;
16063;SDS011;8136;53.172;8.256;2023-09-12T03:45:17;31.83;;;23.17;;
16063;SDS011;8136;53.172;8.256;2023-09-12T03:47:44;30.13;;;22.37;;
16063;SDS011;8136;53.172;8.256;2023-09-12T03:50:11;27.40;;;21.20;;
16063;SDS011;8136;53.172;8.256;2023-09-12T03:52:39;33.00;;;23.10;;
16063;SDS011;8136;53.172;8.256;2023-09-12T03:55:06;30.27;;;21.37;;
16063;SDS011;8136;53.172;8.256;2023-09-12T03:57:33;26.87;;;20.70;;
16063;SDS011;8136;53.172;8.256;2023-09-12T04:00:00;28.10;;;20.93;;
16063;SDS011;8136;53.172;8.256;2023-09-12T04:02:30;31.37;;;22.03;;
16063;SDS011;8136;53.172;8.256;2023-09-12T04:04:57;25.80;;;19.90;;
16063;SDS011;8136;53.172;8.256;2023-09-12T04:07:24;23.27;;;19.17;;
16063;SDS011;8136;53.172;8.256;2023-09-12T04:09:51;26.67;;;20.80;;
16063;SDS011;8136;53.172;8.256;2023-09-12T04:12:18;24.13;;;19.23;;
16063;SDS011;8136;53.172;8.256;2023-09-12T04:14:45;24.80;;;19.63;;
16063;SDS011;8136;53.172;8.256;2023-09-12T04:17:11;28.50;;;19.57;;
16063;SDS011;8136;53.172;8.256;2023-09-12T04:19:39;25.37;;;19.00;;
16063;SDS011;8136;53.172;8.256;2023-09-12T04:22:06;23.93;;;19.33;;
16063;SDS011;8136;53.172;8.256;2023-09-12T04:24:33;25.77;;;21.07;;
16063;SDS011;8136;53.172;8.256;2023-09-12T04:27:00;28.63;;;20.80;;
16063;SDS011;8136;53.172;8.256;2023-09-12T04:29:27;32.67;;;21.77;;
16063;SDS011;8136;53.172;8.256;2023-09-12T04:31:54;27.43;;;19.27;;
16063;SDS011;8136;53.172;8.256;2023-09-12T04:34:24;26.30;;;19.03;;
16063;SDS011;8136;53.172;8.256;2023-09-12T04:36:52;30.67;;;21.27;;
16063;SDS011;8136;53.172;8.256;2023-09-12T04:39:20;27.90;;;20.30;;
16063;SDS011;8136;53.172;8.256;2023-09-12T04:41:46;27.53;;;20.37;;
16063;SDS011;8136;53.172;8.256;2023-09-12T04:44:13;27.33;;;22.00;;
16063;SDS011;8136;53.172;8.256;2023-09-12T04:46:40;31.63;;;21.33;;
16063;SDS011;8136;53.172;8.256;2023-09-12T04:49:07;32.87;;;23.20;;
16063;SDS011;8136;53.172;8.256;2023-09-12T04:51:34;27.73;;;20.77;;
16063;SDS011;8136;53.172;8.256;2023-09-12T04:54:02;24.13;;;18.43;;
16063;SDS011;8136;53.172;8.256;2023-09-12T04:56:29;22.97;;;18.57;;
16063;SDS011;8136;53.172;8.256;2023-09-12T04:58:56;22.23;;;17.00;;
16063;SDS011;8136;53.172;8.256;2023-09-12T05:01:23;27.63;;;17.07;;
16063;SDS011;8136;53.172;8.256;2023-09-12T05:03:50;22.53;;;17.53;;
16063;SDS011;8136;53.172;8.256;2023-09-12T05:06:17;24.30;;;17.90;;
16063;SDS011;8136;53.172;8.256;2023-09-12T05:08:44;22.00;;;17.77;;
16063;SDS011;8136;53.172;8.256;2023-09-12T05:11:12;30.30;;;16.57;;
16063;SDS011;8136;53.172;8.256;2023-09-12T05:13:39;24.00;;;18.57;;
16063;SDS011;8136;53.172;8.256;2023-09-12T05:16:06;24.00;;;17.57;;
16063;SDS011;8136;53.172;8.256;2023-09-12T05:18:33;26.33;;;19.03;;
16063;SDS011;8136;53.172;8.256;2023-09-12T05:20:59;26.33;;;20.50;;
16063;SDS011;8136;53.172;8.256;2023-09-12T05:23:26;26.43;;;19.17;;
16063;SDS011;8136;53.172;8.256;2023-09-12T05:25:53;24.40;;;18.80;;
16063;SDS011;8136;53.172;8.256;2023-09-12T05:28:21;20.50;;;16.73;;
16063;SDS011;8136;53.172;8.256;2023-09-12T05:30:48;28.87;;;20.83;;
16063;SDS011;8136;53.172;8.256;2023-09-12T05:33:15;28.27;;;22.57;;
16063;SDS011;8136;53.172;8.256;2023-09-12T05:35:42;32.67;;;23.13;;
16063;SDS011;8136;53.172;8.256;2023-09-12T05:38:09;31.90;;;23.07;;
16063;SDS011;8136;53.172;8.256;2023-09-12T05:40:36;34.50;;;26.17;;
16063;SDS011;8136;53.172;8.256;2023-09-12T05:43:03;41.43;;;27.80;;
16063;SDS011;8136;53.172;8.256;2023-09-12T05:45:31;43.33;;;28.17;;
16063;SDS011;8136;53.172;8.256;2023-09-12T05:47:58;39.73;;;26.47;;
16063;SDS011;8136;53.172;8.256;2023-09-12T05:50:25;37.63;;;27.53;;
16063;SDS011;8136;53.172;8.256;2023-09-12T05:52:52;33.00;;;24.07;;
16063;SDS011;8136;53.172;8.256;2023-09-12T05:55:18;35.37;;;26.20;;
16063;SDS011;8136;53.172;8.256;2023-09-12T05:57:45;39.37;;;27.23;;
16063;SDS011;8136;53.172;8.256;2023-09-12T06:00:17;30.17;;;22.83;;
16063;SDS011;8136;53.172;8.256;2023-09-12T06:02:45;37.63;;;26.27;;
16063;SDS011;8136;53.172;8.256;2023-09-12T06:05:13;35.13;;;25.70;;
16063;SDS011;8136;53.172;8.256;2023-09-12T06:07:40;37.37;;;25.47;;
16063;SDS011;8136;53.172;8.256;2023-09-12T06:10:07;35.93;;;26.50;;
16063;SDS011;8136;53.172;8.256;2023-09-12T06:12:35;35.20;;;25.37;;
16063;SDS011;8136;53.172;8.256;2023-09-12T06:15:02;35.77;;;26.50;;
16063;SDS011;8136;53.172;8.256;2023-09-12T06:17:29;34.40;;;24.93;;
16063;SDS011;8136;53.172;8.256;2023-09-12T06:19:57;38.60;;;26.37;;
16063;SDS011;8136;53.172;8.256;2023-09-12T06:22:24;35.77;;;24.90;;
16063;SDS011;8136;53.172;8.256;2023-09-12T06:24:51;35.27;;;26.23;;
16063;SDS011;8136;53.172;8.256;2023-09-12T06:27:18;36.40;;;26.03;;
16063;SDS011;8136;53.172;8.256;2023-09-12T06:29:45;39.60;;;27.13;;
16063;SDS011;8136;53.172;8.256;2023-09-12T06:32:13;39.30;;;28.60;;
16063;SDS011;8136;53.172;8.256;2023-09-12T06:34:40;42.97;;;27.83;;
16063;SDS011;8136;53.172;8.256;2023-09-12T06:37:08;41.47;;;28.97;;
16063;SDS011;8136;53.172;8.256;2023-09-12T06:39:35;37.53;;;27.10;;
16063;SDS011;8136;53.172;8.256;2023-09-12T06:42:02;38.10;;;26.17;;
16063;SDS011;8136;53.172;8.256;2023-09-12T06:44:29;41.50;;;27.43;;
16063;SDS011;8136;53.172;8.256;2023-09-12T06:46:56;41.10;;;26.83;;
16063;SDS011;8136;53.172;8.256;2023-09-12T06:49:22;38.27;;;26.83;;
16063;SDS011;8136;53.172;8.256;2023-09-12T06:51:49;40.90;;;27.63;;
16063;SDS011;8136;53.172;8.256;2023-09-12T06:54:17;38.20;;;27.27;;
16063;SDS011;8136;53.172;8.256;2023-09-12T06:56:44;45.47;;;28.43;;
16063;SDS011;8136;53.172;8.256;2023-09-12T06:59:11;43.90;;;28.53;;
16063;SDS011;8136;53.172;8.256;2023-09-12T07:01:38;39.23;;;28.10;;
16063;SDS011;8136;53.172;8.256;2023-09-12T07:04:05;37.43;;;27.70;;
16063;SDS011;8136;53.172;8.256;2023-09-12T07:06:32;40.10;;;28.70;;
16063;SDS011;8136;53.172;8.256;2023-09-12T07:08:58;41.97;;;27.50;;
16063;SDS011;8136;53.172;8.256;2023-09-12T07:11:27;35.57;;;25.27;;
16063;SDS011;8136;53.172;8.256;2023-09-12T07:13:53;37.93;;;29.17;;
16063;SDS011;8136;53.172;8.256;2023-09-12T07:16:20;42.60;;;27.57;;
16063;SDS011;8136;53.172;8.256;2023-09-12T07:18:47;36.50;;;26.87;;
16063;SDS011;8136;53.172;8.256;2023-09-12T07:21:15;36.53;;;26.33;;
16063;SDS011;8136;53.172;8.256;2023-09-12T07:23:42;41.60;;;27.80;;
16063;SDS011;8136;53.172;8.256;2023-09-12T07:26:11;32.67;;;24.23;;
16063;SDS011;8136;53.172;8.256;2023-09-12T07:28:40;35.00;;;24.70;;
16063;SDS011;8136;53.172;8.256;2023-09-12T07:31:07;32.17;;;22.57;;
16063;SDS011;8136;53.172;8.256;2023-09-12T07:33:34;34.97;;;24.83;;
16063;SDS011;8136;53.172;8.256;2023-09-12T07:36:00;31.83;;;23.00;;
16063;SDS011;8136;53.172;8.256;2023-09-12T07:38:28;33.60;;;24.63;;
16063;SDS011;8136;53.172;8.256;2023-09-12T07:40:56;40.43;;;24.20;;
16063;SDS011;8136;53.172;8.256;2023-09-12T07:43:23;30.73;;;24.00;;
16063;SDS011;8136;53.172;8.256;2023-09-12T07:45:55;34.70;;;24.30;;
16063;SDS011;8136;53.172;8.256;2023-09-12T07:48:24;30.50;;;21.83;;
16063;SDS011;8136;53.172;8.256;2023-09-12T07:50:50;33.77;;;22.77;;
16063;SDS011;8136;53.172;8.256;2023-09-12T07:53:17;32.37;;;24.03;;
16063;SDS011;8136;53.172;8.256;2023-09-12T07:55:44;33.27;;;23.70;;
16063;SDS011;8136;53.172;8.256;2023-09-12T07:58:11;31.47;;;22.77;;
16063;SDS011;8136;53.172;8.256;2023-09-12T08:00:39;32.87;;;22.77;;
16063;SDS011;8136;53.172;8.256;2023-09-12T08:03:07;36.37;;;24.70;;
16063;SDS011;8136;53.172;8.256;2023-09-12T08:05:34;28.03;;;20.47;;
16063;SDS011;8136;53.172;8.256;2023-09-12T08:08:01;28.07;;;21.57;;
16063;SDS011;8136;53.172;8.256;2023-09-12T08:10:28;30.20;;;21.00;;
16063;SDS011;8136;53.172;8.256;2023-09-12T08:12:55;28.87;;;21.70;;
16063;SDS011;8136;53.172;8.256;2023-09-12T08:15:22;25.97;;;19.57;;
16063;SDS011;8136;53.172;8.256;2023-09-12T08:17:49;30.53;;;21.30;;
16063;SDS011;8136;53.172;8.256;2023-09-12T08:20:18;28.37;;;21.27;;
16063;SDS011;8136;53.172;8.256;2023-09-12T08:22:46;26.53;;;20.13;;
16063;SDS011;8136;53.172;8.256;2023-09-12T08:25:13;27.77;;;19.30;;
16063;SDS011;8136;53.172;8.256;2023-09-12T08:27:40;28.73;;;19.63;;
16063;SDS011;8136;53.172;8.256;2023-09-12T08:30:09;27.90;;;18.77;;
16063;SDS011;8136;53.172;8.256;2023-09-12T08:32:37;28.67;;;19.83;;
16063;SDS011;8136;53.172;8.256;2023-09-12T08:35:08;29.77;;;20.00;;
16063;SDS011;8136;53.172;8.256;2023-09-12T08:37:37;26.57;;;18.90;;
16063;SDS011;8136;53.172;8.256;2023-09-12T08:40:04;27.27;;;19.73;;
16063;SDS011;8136;53.172;8.256;2023-09-12T08:42:34;30.07;;;21.27;;
16063;SDS011;8136;53.172;8.256;2023-09-12T08:45:06;26.77;;;21.53;;
16063;SDS011;8136;53.172;8.256;2023-09-12T08:47:37;25.50;;;19.80;;
16063;SDS011;8136;53.172;8.256;2023-09-12T08:50:07;27.67;;;19.50;;
16063;SDS011;8136;53.172;8.256;2023-09-12T08:52:37;26.80;;;19.70;;
16063;SDS011;8136;53.172;8.256;2023-09-12T08:55:04;29.13;;;20.37;;
16063;SDS011;8136;53.172;8.256;2023-09-12T08:57:32;27.77;;;20.47;;
16063;SDS011;8136;53.172;8.256;2023-09-12T09:00:02;26.23;;;19.63;;
16063;SDS011;8136;53.172;8.256;2023-09-12T09:02:31;26.87;;;19.47;;
16063;SDS011;8136;53.172;8.256;2023-09-12T09:04:59;27.10;;;19.47;;
16063;SDS011;8136;53.172;8.256;2023-09-12T09:07:30;26.57;;;19.90;;
16063;SDS011;8136;53.172;8.256;2023-09-12T09:09:59;28.90;;;19.27;;
16063;SDS011;8136;53.172;8.256;2023-09-12T09:12:29;28.33;;;19.23;;
16063;SDS011;8136;53.172;8.256;2023-09-12T09:14:56;29.90;;;20.67;;
16063;SDS011;8136;53.172;8.256;2023-09-12T09:17:23;31.50;;;20.83;;
16063;SDS011;8136;53.172;8.256;2023-09-12T09:19:49;33.17;;;20.73;;
16063;SDS011;8136;53.172;8.256;2023-09-12T09:22:16;29.10;;;19.67;;
16063;SDS011;8136;53.172;8.256;2023-09-12T09:24:43;32.03;;;19.17;;
16063;SDS011;8136;53.172;8.256;2023-09-12T09:27:11;29.70;;;19.23;;
16063;SDS011;8136;53.172;8.256;2023-09-12T09:29:47;27.80;;;17.90;;
16063;SDS011;8136;53.172;8.256;2023-09-12T09:32:18;23.43;;;17.63;;
16063;SDS011;8136;53.172;8.256;2023-09-12T09:34:46;24.40;;;16.63;;
16063;SDS011;8136;53.172;8.256;2023-09-12T09:37:13;24.17;;;17.00;;
16063;SDS011;8136;53.172;8.256;2023-09-12T09:39:44;23.73;;;16.43;;
16063;SDS011;8136;53.172;8.256;2023-09-12T09:42:14;23.03;;;15.50;;
16063;SDS011;8136;53.172;8.256;2023-09-12T09:44:41;19.87;;;14.47;;
16063;SDS011;8136;53.172;8.256;2023-09-12T09:47:08;24.20;;;16.27;;
16063;SDS011;8136;53.172;8.256;2023-09-12T09:49:35;20.20;;;15.47;;
16063;SDS011;8136;53.172;8.256;2023-09-12T09:52:03;21.27;;;16.13;;
16063;SDS011;8136;53.172;8.256;2023-09-12T09:54:30;21.47;;;14.97;;
16063;SDS011;8136;53.172;8.256;2023-09-12T09:56:57;17.83;;;13.30;;
16063;SDS011;8136;53.172;8.256;2023-09-12T09:59:26;20.13;;;13.03;;
16063;SDS011;8136;53.172;8.256;2023-09-12T10:01:55;16.80;;;11.70;;
16063;SDS011;8136;53.172;8.256;2023-09-12T10:04:23;20.40;;;13.67;;
16063;SDS011;8136;53.172;8.256;2023-09-12T10:06:52;16.87;;;12.20;;
16063;SDS011;8136;53.172;8.256;2023-09-12T10:09:25;17.37;;;12.07;;
16063;SDS011;8136;53.172;8.256;2023-09-12T10:11:54;19.70;;;12.90;;
16063;SDS011;8136;53.172;8.256;2023-09-12T10:14:22;16.67;;;13.40;;
16063;SDS011;8136;53.172;8.256;2023-09-12T10:16:54;24.60;;;13.17;;
16063;SDS011;8136;53.172;8.256;2023-09-12T10:19:26;19.20;;;14.03;;
16063;SDS011;8136;53.172;8.256;2023-09-12T10:22:00;20.13;;;14.10;;
16063;SDS011;8136;53.172;8.256;2023-09-12T10:24:32;20.33;;;13.37;;
16063;SDS011;8136;53.172;8.256;2023-09-12T10:27:00;18.63;;;14.17;;
16063;SDS011;8136;53.172;8.256;2023-09-12T10:29:29;18.57;;;14.13;;
16063;SDS011;8136;53.172;8.256;2023-09-12T10:31:58;18.27;;;13.37;;
16063;SDS011;8136;53.172;8.256;2023-09-12T10:34:25;19.87;;;13.07;;
16063;SDS011;8136;53.172;8.256;2023-09-12T10:36:55;20.33;;;14.07;;
16063;SDS011;8136;53.172;8.256;2023-09-12T10:39:25;20.93;;;14.47;;
16063;SDS011;8136;53.172;8.256;2023-09-12T10:41:54;19.60;;;12.97;;
16063;SDS011;8136;53.172;8.256;2023-09-12T10:44:22;20.37;;;12.83;;
16063;SDS011;8136;53.172;8.256;2023-09-12T10:46:51;19.90;;;14.33;;
16063;SDS011;8136;53.172;8.256;2023-09-12T10:49:20;16.33;;;12.73;;
16063;SDS011;8136;53.172;8.256;2023-09-12T10:51:48;20.10;;;13.20;;
16063;SDS011;8136;53.172;8.256;2023-09-12T10:54:16;17.93;;;13.53;;
16063;SDS011;8136;53.172;8.256;2023-09-12T10:56:57;16.73;;;12.47;;
16063;SDS011;8136;53.172;8.256;2023-09-12T10:59:28;14.30;;;10.77;;
16063;SDS011;8136;53.172;8.256;2023-09-12T11:02:00;18.17;;;12.53;;
16063;SDS011;8136;53.172;8.256;2023-09-12T11:04:57;18.33;;;12.53;;
16063;SDS011;8136;53.172;8.256;2023-09-12T11:07:31;22.13;;;13.47;;
16063;SDS011;8136;53.172;8.256;2023-09-12T11:10:18;15.77;;;11.90;;
16063;SDS011;8136;53.172;8.256;2023-09-12T11:12:46;17.50;;;12.87;;
16063;SDS011;8136;53.172;8.256;2023-09-12T11:15:14;16.27;;;11.90;;
16063;SDS011;8136;53.172;8.256;2023-09-12T11:17:42;14.07;;;10.67;;
16063;SDS011;8136;53.172;8.256;2023-09-12T11:20:11;19.90;;;12.40;;
16063;SDS011;8136;53.172;8.256;2023-09-12T11:22:39;13.93;;;10.10;;
16063;SDS011;8136;53.172;8.256;2023-09-12T11:25:15;17.47;;;12.63;;
16063;SDS011;8136;53.172;8.256;2023-09-12T11:27:44;18.53;;;13.47;;
16063;SDS011;8136;53.172;8.256;2023-09-12T11:30:27;17.07;;;13.57;;
16063;SDS011;8136;53.172;8.256;2023-09-12T11:32:56;13.50;;;10.47;;
16063;SDS011;8136;53.172;8.256;2023-09-12T11:35:25;16.73;;;11.77;;
16063;SDS011;8136;53.172;8.256;2023-09-12T11:37:53;17.07;;;11.60;;
16063;SDS011;8136;53.172;8.256;2023-09-12T11:40:22;16.23;;;11.50;;
16063;SDS011;8136;53.172;8.256;2023-09-12T11:42:50;13.53;;;10.30;;
16063;SDS011;8136;53.172;8.256;2023-09-12T11:45:17;14.50;;;10.20;;
16063;SDS011;8136;53.172;8.256;2023-09-12T11:47:46;16.33;;;11.03;;
16063;SDS011;8136;53.172;8.256;2023-09-12T11:50:28;15.47;;;11.47;;
16063;SDS011;8136;53.172;8.256;2023-09-12T11:52:59;12.47;;;9.97;;
16063;SDS011;8136;53.172;8.256;2023-09-12T11:55:30;14.60;;;10.47;;
16063;SDS011;8136;53.172;8.256;2023-09-12T11:57:57;16.53;;;11.87;;
16063;SDS011;8136;53.172;8.256;2023-09-12T12:00:24;12.83;;;10.03;;
16063;SDS011;8136;53.172;8.256;2023-09-12T12:02:52;16.40;;;11.50;;
16063;SDS011;8136;53.172;8.256;2023-09-12T12:05:19;14.00;;;10.83;;
16063;SDS011;8136;53.172;8.256;2023-09-12T12:07:47;14.27;;;9.90;;
16063;SDS011;8136;53.172;8.256;2023-09-12T12:10:15;13.03;;;9.17;;
16063;SDS011;8136;53.172;8.256;2023-09-12T12:12:43;13.07;;;9.50;;
16063;SDS011;8136;53.172;8.256;2023-09-12T12:15:11;12.90;;;8.67;;
16063;SDS011;8136;53.172;8.256;2023-09-12T12:17:39;12.67;;;9.67;;
16063;SDS011;8136;53.172;8.256;2023-09-12T12:20:08;14.30;;;10.73;;
16063;SDS011;8136;53.172;8.256;2023-09-12T12:22:36;13.10;;;8.87;;
16063;SDS011;8136;53.172;8.256;2023-09-12T12:25:08;11.00;;;8.03;;
16063;SDS011;8136;53.172;8.256;2023-09-12T12:27:36;7.53;;;5.50;;
16063;SDS011;8136;53.172;8.256;2023-09-12T12:30:05;13.10;;;7.40;;
16063;SDS011;8136;53.172;8.256;2023-09-12T12:32:33;7.73;;;6.17;;
16063;SDS011;8136;53.172;8.256;2023-09-12T12:35:00;10.90;;;7.53;;
16063;SDS011;8136;53.172;8.256;2023-09-12T12:37:28;9.13;;;6.67;;
16063;SDS011;8136;53.172;8.256;2023-09-12T12:39:56;11.50;;;7.20;;
16063;SDS011;8136;53.172;8.256;2023-09-12T12:42:25;11.47;;;7.53;;
16063;SDS011;8136;53.172;8.256;2023-09-12T12:44:58;12.50;;;8.17;;
16063;SDS011;8136;53.172;8.256;2023-09-12T12:47:25;9.37;;;7.10;;
16063;SDS011;8136;53.172;8.256;2023-09-12T12:49:53;9.43;;;7.50;;
16063;SDS011;8136;53.172;8.256;2023-09-12T12:52:23;9.67;;;7.63;;
16063;SDS011;8136;53.172;8.256;2023-09-12T12:54:50;10.07;;;7.90;;
16063;SDS011;8136;53.172;8.256;2023-09-12T12:57:19;9.23;;;6.67;;
16063;SDS011;8136;53.172;8.256;2023-09-12T12:59:48;7.90;;;6.50;;
16063;SDS011;8136;53.172;8.256;2023-09-12T13:02:16;9.90;;;7.93;;
16063;SDS011;8136;53.172;8.256;2023-09-12T13:04:44;12.23;;;6.60;;
16063;SDS011;8136;53.172;8.256;2023-09-12T13:07:11;11.33;;;7.47;;
16063;SDS011;8136;53.172;8.256;2023-09-12T13:09:38;9.93;;;7.67;;
16063;SDS011;8136;53.172;8.256;2023-09-12T13:12:05;9.77;;;5.83;;
16063;SDS011;8136;53.172;8.256;2023-09-12T13:14:33;9.00;;;7.10;;
16063;SDS011;8136;53.172;8.256;2023-09-12T13:17:02;11.83;;;7.53;;
16063;SDS011;8136;53.172;8.256;2023-09-12T13:19:29;12.30;;;6.47;;
16063;SDS011;8136;53.172;8.256;2023-09-12T13:21:56;9.23;;;7.37;;
16063;SDS011;8136;53.172;8.256;2023-09-12T13:24:23;9.80;;;7.03;;
16063;SDS011;8136;53.172;8.256;2023-09-12T13:26:50;9.13;;;7.13;;
16063;SDS011;8136;53.172;8.256;2023-09-12T13:29:17;11.00;;;7.70;;
16063;SDS011;8136;53.172;8.256;2023-09-12T13:31:44;11.80;;;7.80;;
16063;SDS011;8136;53.172;8.256;2023-09-12T13:34:12;10.60;;;6.97;;
16063;SDS011;8136;53.172;8.256;2023-09-12T13:36:39;11.60;;;7.53;;
16063;SDS011;8136;53.172;8.256;2023-09-12T13:39:08;10.50;;;7.27;;
16063;SDS011;8136;53.172;8.256;2023-09-12T13:44:36;10.40;;;6.83;;
16063;SDS011;8136;53.172;8.256;2023-09-12T13:47:11;8.07;;;5.33;;
16063;SDS011;8136;53.172;8.256;2023-09-12T13:49:46;10.43;;;7.10;;
16063;SDS011;8136;53.172;8.256;2023-09-12T13:52:13;7.80;;;6.10;;
16063;SDS011;8136;53.172;8.256;2023-09-12T13:54:40;11.97;;;7.63;;
16063;SDS011;8136;53.172;8.256;2023-09-12T13:57:07;12.30;;;7.20;;
16063;SDS011;8136;53.172;8.256;2023-09-12T13:59:34;8.73;;;6.03;;
16063;SDS011;8136;53.172;8.256;2023-09-12T14:02:01;8.57;;;5.60;;
16063;SDS011;8136;53.172;8.256;2023-09-12T14:04:32;8.43;;;6.40;;
16063;SDS011;8136;53.172;8.256;2023-09-12T14:07:03;7.47;;;5.63;;
16063;SDS011;8136;53.172;8.256;2023-09-12T14:09:30;7.80;;;5.70;;
16063;SDS011;8136;53.172;8.256;2023-09-12T14:11:59;7.03;;;5.50;;
16063;SDS011;8136;53.172;8.256;2023-09-12T14:14:27;7.67;;;6.40;;
16063;SDS011;8136;53.172;8.256;2023-09-12T14:16:58;8.07;;;6.63;;
16063;SDS011;8136;53.172;8.256;2023-09-12T14:19:25;7.63;;;5.73;;
16063;SDS011;8136;53.172;8.256;2023-09-12T14:21:52;7.17;;;4.10;;
16063;SDS011;8136;53.172;8.256;2023-09-12T14:24:21;7.77;;;3.77;;
16063;SDS011;8136;53.172;8.256;2023-09-12T14:26:49;6.93;;;4.30;;
16063;SDS011;8136;53.172;8.256;2023-09-12T14:29:18;5.70;;;3.83;;
16063;SDS011;8136;53.172;8.256;2023-09-12T14:31:55;9.10;;;4.73;;
16063;SDS011;8136;53.172;8.256;2023-09-12T14:34:23;4.63;;;4.00;;
16063;SDS011;8136;53.172;8.256;2023-09-12T14:36:51;5.68;;;4.30;;
16063;SDS011;8136;53.172;8.256;2023-09-12T14:39:18;4.72;;;4.00;;
16063;SDS011;8136;53.172;8.256;2023-09-12T14:41:50;5.45;;;4.50;;
16063;SDS011;8136;53.172;8.256;2023-09-12T14:44:19;5.95;;;4.57;;
16063;SDS011;8136;53.172;8.256;2023-09-12T14:46:46;5.20;;;3.90;;